sensor_id;sensor_type;location;lat;lon;timestamp;P1;durP1;ratioP1;P2;durP2;ratioP2
47882;SDS011;37739;50.350;7.578;2023-02-23T00:01:57;18.67;;;16.77;;
47882;SDS011;37739;50.350;7.578;2023-02-23T00:04:33;18.23;;;15.53;;
47882;SDS011;37739;50.350;7.578;2023-02-23T00:06:59;19.97;;;17.90;;
47882;SDS011;37739;50.350;7.578;2023-02-23T00:09:24;18.43;;;16.53;;
47882;SDS011;37739;50.350;7.578;2023-02-23T00:11:50;15.83;;;13.30;;
47882;SDS011;37739;50.350;7.578;2023-02-23T00:14:17;17.80;;;15.90;;
47882;SDS011;37739;50.350;7.578;2023-02-23T00:16:44;18.60;;;14.37;;
47882;SDS011;37739;50.350;7.578;2023-02-23T00:19:10;19.50;;;15.87;;
47882;SDS011;37739;50.350;7.578;2023-02-23T00:21:37;20.43;;;16.80;;
47882;SDS011;37739;50.350;7.578;2023-02-23T00:24:05;18.53;;;16.10;;
47882;SDS011;37739;50.350;7.578;2023-02-23T00:26:36;17.87;;;16.07;;
47882;SDS011;37739;50.350;7.578;2023-02-23T00:29:07;18.13;;;16.23;;
47882;SDS011;37739;50.350;7.578;2023-02-23T00:31:36;19.50;;;17.40;;
47882;SDS011;37739;50.350;7.578;2023-02-23T00:34:03;19.07;;;17.13;;
47882;SDS011;37739;50.350;7.578;2023-02-23T00:36:31;18.63;;;16.73;;
47882;SDS011;37739;50.350;7.578;2023-02-23T00:38:58;28.57;;;18.13;;
47882;SDS011;37739;50.350;7.578;2023-02-23T00:41:25;19.93;;;17.73;;
47882;SDS011;37739;50.350;7.578;2023-02-23T00:43:54;19.10;;;17.30;;
47882;SDS011;37739;50.350;7.578;2023-02-23T00:46:24;20.57;;;18.37;;
47882;SDS011;37739;50.350;7.578;2023-02-23T00:48:51;20.70;;;18.37;;
47882;SDS011;37739;50.350;7.578;2023-02-23T00:51:26;20.80;;;17.60;;
47882;SDS011;37739;50.350;7.578;2023-02-23T00:53:57;19.47;;;17.37;;
47882;SDS011;37739;50.350;7.578;2023-02-23T00:56:25;19.17;;;16.20;;
47882;SDS011;37739;50.350;7.578;2023-02-23T00:58:51;25.10;;;19.97;;
47882;SDS011;37739;50.350;7.578;2023-02-23T01:01:20;18.40;;;16.47;;
47882;SDS011;37739;50.350;7.578;2023-02-23T01:03:45;21.20;;;17.53;;
47882;SDS011;37739;50.350;7.578;2023-02-23T01:06:12;22.17;;;17.00;;
47882;SDS011;37739;50.350;7.578;2023-02-23T01:08:40;20.30;;;16.87;;
47882;SDS011;37739;50.350;7.578;2023-02-23T01:11:13;19.00;;;17.00;;
47882;SDS011;37739;50.350;7.578;2023-02-23T01:13:42;18.17;;;16.13;;
47882;SDS011;37739;50.350;7.578;2023-02-23T01:16:10;17.80;;;15.73;;
47882;SDS011;37739;50.350;7.578;2023-02-23T01:18:38;20.03;;;16.90;;
47882;SDS011;37739;50.350;7.578;2023-02-23T01:23:47;19.67;;;15.80;;
47882;SDS011;37739;50.350;7.578;2023-02-23T01:26:16;21.17;;;18.00;;
47882;SDS011;37739;50.350;7.578;2023-02-23T01:28:48;21.97;;;17.77;;
47882;SDS011;37739;50.350;7.578;2023-02-23T01:31:15;20.43;;;17.30;;
47882;SDS011;37739;50.350;7.578;2023-02-23T01:33:40;20.30;;;17.07;;
47882;SDS011;37739;50.350;7.578;2023-02-23T01:36:05;17.40;;;15.23;;
47882;SDS011;37739;50.350;7.578;2023-02-23T01:38:31;20.03;;;17.90;;
47882;SDS011;37739;50.350;7.578;2023-02-23T01:41:01;20.63;;;16.90;;
47882;SDS011;37739;50.350;7.578;2023-02-23T01:43:27;22.37;;;18.23;;
47882;SDS011;37739;50.350;7.578;2023-02-23T01:45:55;20.30;;;17.80;;
47882;SDS011;37739;50.350;7.578;2023-02-23T01:48:31;20.47;;;16.87;;
47882;SDS011;37739;50.350;7.578;2023-02-23T01:51:12;18.93;;;16.90;;
47882;SDS011;37739;50.350;7.578;2023-02-23T01:53:50;23.97;;;18.87;;
47882;SDS011;37739;50.350;7.578;2023-02-23T01:56:24;24.93;;;19.47;;
47882;SDS011;37739;50.350;7.578;2023-02-23T01:58:56;23.40;;;18.13;;
47882;SDS011;37739;50.350;7.578;2023-02-23T02:01:23;20.53;;;18.23;;
47882;SDS011;37739;50.350;7.578;2023-02-23T02:04:10;18.50;;;16.53;;
47882;SDS011;37739;50.350;7.578;2023-02-23T02:06:40;20.17;;;17.63;;
47882;SDS011;37739;50.350;7.578;2023-02-23T02:09:09;21.80;;;19.30;;
47882;SDS011;37739;50.350;7.578;2023-02-23T02:11:42;19.93;;;17.70;;
47882;SDS011;37739;50.350;7.578;2023-02-23T02:14:09;18.60;;;16.57;;
47882;SDS011;37739;50.350;7.578;2023-02-23T02:19:25;17.20;;;15.30;;
47882;SDS011;37739;50.350;7.578;2023-02-23T02:28:28;20.30;;;18.13;;
47882;SDS011;37739;50.350;7.578;2023-02-23T02:33:43;18.17;;;15.37;;
47882;SDS011;37739;50.350;7.578;2023-02-23T02:36:40;20.60;;;17.50;;
47882;SDS011;37739;50.350;7.578;2023-02-23T02:47:53;22.80;;;17.80;;
47882;SDS011;37739;50.350;7.578;2023-02-23T02:50:29;20.23;;;16.70;;
47882;SDS011;37739;50.350;7.578;2023-02-23T02:53:08;22.07;;;17.20;;
47882;SDS011;37739;50.350;7.578;2023-02-23T02:55:37;20.40;;;17.50;;
47882;SDS011;37739;50.350;7.578;2023-02-23T02:58:07;20.20;;;15.80;;
47882;SDS011;37739;50.350;7.578;2023-02-23T03:00:36;20.13;;;17.50;;
47882;SDS011;37739;50.350;7.578;2023-02-23T03:03:43;23.40;;;17.90;;
47882;SDS011;37739;50.350;7.578;2023-02-23T03:06:32;19.37;;;16.17;;
47882;SDS011;37739;50.350;7.578;2023-02-23T03:09:26;21.97;;;17.67;;
47882;SDS011;37739;50.350;7.578;2023-02-23T03:17:44;19.80;;;16.77;;
47882;SDS011;37739;50.350;7.578;2023-02-23T03:26:35;21.97;;;17.33;;
47882;SDS011;37739;50.350;7.578;2023-02-23T03:29:29;23.03;;;19.23;;
47882;SDS011;37739;50.350;7.578;2023-02-23T03:38:10;17.43;;;15.60;;
47882;SDS011;37739;50.350;7.578;2023-02-23T03:41:01;19.03;;;14.97;;
47882;SDS011;37739;50.350;7.578;2023-02-23T03:43:51;17.73;;;15.63;;
47882;SDS011;37739;50.350;7.578;2023-02-23T03:46:39;18.30;;;15.40;;
47882;SDS011;37739;50.350;7.578;2023-02-23T03:49:26;18.90;;;15.43;;
47882;SDS011;37739;50.350;7.578;2023-02-23T03:52:19;21.43;;;17.53;;
47882;SDS011;37739;50.350;7.578;2023-02-23T03:55:11;22.40;;;18.57;;
47882;SDS011;37739;50.350;7.578;2023-02-23T03:58:00;25.50;;;17.03;;
47882;SDS011;37739;50.350;7.578;2023-02-23T04:00:50;20.40;;;16.40;;
47882;SDS011;37739;50.350;7.578;2023-02-23T04:03:39;17.63;;;15.83;;
47882;SDS011;37739;50.350;7.578;2023-02-23T04:06:28;20.27;;;16.60;;
47882;SDS011;37739;50.350;7.578;2023-02-23T04:09:18;24.53;;;16.53;;
47882;SDS011;37739;50.350;7.578;2023-02-23T04:12:10;17.90;;;16.00;;
47882;SDS011;37739;50.350;7.578;2023-02-23T04:17:33;20.03;;;17.30;;
47882;SDS011;37739;50.350;7.578;2023-02-23T04:20:03;21.27;;;17.17;;
47882;SDS011;37739;50.350;7.578;2023-02-23T04:22:31;17.23;;;14.77;;
47882;SDS011;37739;50.350;7.578;2023-02-23T04:24:57;21.13;;;16.30;;
47882;SDS011;37739;50.350;7.578;2023-02-23T04:27:25;16.67;;;15.00;;
47882;SDS011;37739;50.350;7.578;2023-02-23T04:29:53;19.63;;;17.03;;
47882;SDS011;37739;50.350;7.578;2023-02-23T04:32:19;18.67;;;15.93;;
47882;SDS011;37739;50.350;7.578;2023-02-23T04:34:47;15.93;;;13.77;;
47882;SDS011;37739;50.350;7.578;2023-02-23T04:37:13;19.93;;;15.17;;
47882;SDS011;37739;50.350;7.578;2023-02-23T04:39:41;24.27;;;17.30;;
47882;SDS011;37739;50.350;7.578;2023-02-23T04:42:12;19.67;;;16.27;;
47882;SDS011;37739;50.350;7.578;2023-02-23T04:44:38;16.87;;;14.07;;
47882;SDS011;37739;50.350;7.578;2023-02-23T04:47:03;18.73;;;15.10;;
47882;SDS011;37739;50.350;7.578;2023-02-23T04:49:30;20.53;;;15.47;;
47882;SDS011;37739;50.350;7.578;2023-02-23T04:51:56;19.13;;;15.10;;
47882;SDS011;37739;50.350;7.578;2023-02-23T04:54:24;18.70;;;14.53;;
47882;SDS011;37739;50.350;7.578;2023-02-23T04:56:52;18.00;;;13.50;;
47882;SDS011;37739;50.350;7.578;2023-02-23T04:59:20;23.40;;;17.80;;
47882;SDS011;37739;50.350;7.578;2023-02-23T05:01:45;19.37;;;14.90;;
47882;SDS011;37739;50.350;7.578;2023-02-23T05:04:11;18.70;;;15.67;;
47882;SDS011;37739;50.350;7.578;2023-02-23T05:06:38;18.13;;;15.83;;
47882;SDS011;37739;50.350;7.578;2023-02-23T05:09:06;21.00;;;16.60;;
47882;SDS011;37739;50.350;7.578;2023-02-23T05:11:36;18.17;;;14.23;;
47882;SDS011;37739;50.350;7.578;2023-02-23T05:14:06;17.97;;;14.60;;
47882;SDS011;37739;50.350;7.578;2023-02-23T05:16:31;14.77;;;13.23;;
47882;SDS011;37739;50.350;7.578;2023-02-23T05:18:59;15.20;;;13.60;;
47882;SDS011;37739;50.350;7.578;2023-02-23T05:21:25;14.03;;;12.60;;
47882;SDS011;37739;50.350;7.578;2023-02-23T05:23:51;14.30;;;12.43;;
47882;SDS011;37739;50.350;7.578;2023-02-23T05:26:19;13.60;;;11.30;;
47882;SDS011;37739;50.350;7.578;2023-02-23T05:28:44;16.17;;;12.30;;
47882;SDS011;37739;50.350;7.578;2023-02-23T05:31:12;15.50;;;12.23;;
47882;SDS011;37739;50.350;7.578;2023-02-23T05:33:37;12.03;;;10.57;;
47882;SDS011;37739;50.350;7.578;2023-02-23T05:36:10;12.13;;;10.33;;
47882;SDS011;37739;50.350;7.578;2023-02-23T05:38:37;11.83;;;10.47;;
47882;SDS011;37739;50.350;7.578;2023-02-23T05:41:07;13.03;;;11.70;;
47882;SDS011;37739;50.350;7.578;2023-02-23T05:43:37;17.60;;;12.73;;
47882;SDS011;37739;50.350;7.578;2023-02-23T05:46:06;13.50;;;11.03;;
47882;SDS011;37739;50.350;7.578;2023-02-23T05:48:35;14.47;;;11.93;;
47882;SDS011;37739;50.350;7.578;2023-02-23T05:51:08;15.47;;;12.50;;
47882;SDS011;37739;50.350;7.578;2023-02-23T05:53:36;13.37;;;11.97;;
47882;SDS011;37739;50.350;7.578;2023-02-23T05:56:02;16.23;;;14.53;;
47882;SDS011;37739;50.350;7.578;2023-02-23T05:58:28;19.73;;;14.03;;
47882;SDS011;37739;50.350;7.578;2023-02-23T06:00:58;13.60;;;11.40;;
47882;SDS011;37739;50.350;7.578;2023-02-23T06:03:28;14.17;;;12.67;;
47882;SDS011;37739;50.350;7.578;2023-02-23T06:05:57;16.67;;;14.90;;
47882;SDS011;37739;50.350;7.578;2023-02-23T06:08:25;18.13;;;14.80;;
47882;SDS011;37739;50.350;7.578;2023-02-23T06:10:50;14.80;;;13.30;;
47882;SDS011;37739;50.350;7.578;2023-02-23T06:13:20;14.47;;;12.90;;
47882;SDS011;37739;50.350;7.578;2023-02-23T06:15:46;16.63;;;14.93;;
47882;SDS011;37739;50.350;7.578;2023-02-23T06:18:11;18.10;;;13.87;;
47882;SDS011;37739;50.350;7.578;2023-02-23T06:20:39;14.37;;;12.47;;
47882;SDS011;37739;50.350;7.578;2023-02-23T06:23:04;19.37;;;15.70;;
47882;SDS011;37739;50.350;7.578;2023-02-23T06:25:31;18.10;;;15.40;;
47882;SDS011;37739;50.350;7.578;2023-02-23T06:27:57;15.50;;;12.70;;
47882;SDS011;37739;50.350;7.578;2023-02-23T06:30:22;15.00;;;12.90;;
47882;SDS011;37739;50.350;7.578;2023-02-23T06:32:47;17.63;;;14.77;;
47882;SDS011;37739;50.350;7.578;2023-02-23T06:35:13;16.43;;;13.00;;
47882;SDS011;37739;50.350;7.578;2023-02-23T06:37:40;14.20;;;11.77;;
47882;SDS011;37739;50.350;7.578;2023-02-23T06:40:08;13.90;;;12.50;;
47882;SDS011;37739;50.350;7.578;2023-02-23T06:42:36;13.00;;;11.37;;
47882;SDS011;37739;50.350;7.578;2023-02-23T06:45:02;16.10;;;13.50;;
47882;SDS011;37739;50.350;7.578;2023-02-23T06:47:30;14.57;;;12.50;;
47882;SDS011;37739;50.350;7.578;2023-02-23T06:49:56;14.40;;;12.70;;
47882;SDS011;37739;50.350;7.578;2023-02-23T06:52:21;13.17;;;11.87;;
47882;SDS011;37739;50.350;7.578;2023-02-23T06:54:49;13.47;;;11.80;;
47882;SDS011;37739;50.350;7.578;2023-02-23T06:57:15;13.93;;;12.50;;
47882;SDS011;37739;50.350;7.578;2023-02-23T06:59:43;13.57;;;12.17;;
47882;SDS011;37739;50.350;7.578;2023-02-23T07:02:11;14.27;;;12.77;;
47882;SDS011;37739;50.350;7.578;2023-02-23T07:04:37;11.70;;;10.60;;
47882;SDS011;37739;50.350;7.578;2023-02-23T07:07:05;11.30;;;10.10;;
47882;SDS011;37739;50.350;7.578;2023-02-23T07:09:32;12.83;;;11.37;;
47882;SDS011;37739;50.350;7.578;2023-02-23T07:11:58;12.80;;;11.50;;
47882;SDS011;37739;50.350;7.578;2023-02-23T07:14:26;12.47;;;10.70;;
47882;SDS011;37739;50.350;7.578;2023-02-23T07:16:54;13.23;;;11.83;;
47882;SDS011;37739;50.350;7.578;2023-02-23T07:19:22;12.13;;;10.93;;
47882;SDS011;37739;50.350;7.578;2023-02-23T07:21:47;11.70;;;10.60;;
47882;SDS011;37739;50.350;7.578;2023-02-23T07:24:15;10.87;;;9.77;;
47882;SDS011;37739;50.350;7.578;2023-02-23T07:26:45;10.17;;;9.20;;
47882;SDS011;37739;50.350;7.578;2023-02-23T07:29:12;10.90;;;9.07;;
47882;SDS011;37739;50.350;7.578;2023-02-23T07:31:38;10.47;;;9.40;;
47882;SDS011;37739;50.350;7.578;2023-02-23T07:34:03;11.10;;;10.00;;
47882;SDS011;37739;50.350;7.578;2023-02-23T07:36:28;11.93;;;10.73;;
47882;SDS011;37739;50.350;7.578;2023-02-23T07:38:54;14.00;;;12.60;;
47882;SDS011;37739;50.350;7.578;2023-02-23T07:41:19;10.73;;;9.70;;
47882;SDS011;37739;50.350;7.578;2023-02-23T07:43:50;9.27;;;8.30;;
47882;SDS011;37739;50.350;7.578;2023-02-23T07:46:15;10.60;;;9.40;;
47882;SDS011;37739;50.350;7.578;2023-02-23T07:48:43;14.37;;;12.97;;
47882;SDS011;37739;50.350;7.578;2023-02-23T07:51:09;15.30;;;13.67;;
47882;SDS011;37739;50.350;7.578;2023-02-23T07:53:36;12.30;;;10.70;;
47882;SDS011;37739;50.350;7.578;2023-02-23T07:56:02;11.50;;;10.07;;
47882;SDS011;37739;50.350;7.578;2023-02-23T07:58:28;13.17;;;11.77;;
47882;SDS011;37739;50.350;7.578;2023-02-23T08:00:54;17.07;;;15.37;;
47882;SDS011;37739;50.350;7.578;2023-02-23T08:03:20;18.23;;;16.33;;
47882;SDS011;37739;50.350;7.578;2023-02-23T08:05:45;19.90;;;17.80;;
47882;SDS011;37739;50.350;7.578;2023-02-23T08:08:11;16.20;;;14.60;;
47882;SDS011;37739;50.350;7.578;2023-02-23T08:10:37;16.93;;;15.30;;
47882;SDS011;37739;50.350;7.578;2023-02-23T08:13:03;17.10;;;15.50;;
47882;SDS011;37739;50.350;7.578;2023-02-23T08:15:29;23.50;;;21.23;;
47882;SDS011;37739;50.350;7.578;2023-02-23T08:17:56;20.43;;;18.33;;
47882;SDS011;37739;50.350;7.578;2023-02-23T08:20:22;18.80;;;16.90;;
47882;SDS011;37739;50.350;7.578;2023-02-23T08:22:52;27.80;;;24.80;;
47882;SDS011;37739;50.350;7.578;2023-02-23T08:25:18;26.43;;;23.70;;
47882;SDS011;37739;50.350;7.578;2023-02-23T08:27:43;21.67;;;19.33;;
47882;SDS011;37739;50.350;7.578;2023-02-23T08:30:10;20.90;;;18.90;;
47882;SDS011;37739;50.350;7.578;2023-02-23T08:32:38;27.20;;;23.40;;
47882;SDS011;37739;50.350;7.578;2023-02-23T08:35:08;26.33;;;23.63;;
47882;SDS011;37739;50.350;7.578;2023-02-23T08:37:33;22.60;;;20.20;;
47882;SDS011;37739;50.350;7.578;2023-02-23T08:39:59;23.47;;;18.57;;
47882;SDS011;37739;50.350;7.578;2023-02-23T08:42:24;24.13;;;21.80;;
47882;SDS011;37739;50.350;7.578;2023-02-23T08:44:50;23.30;;;20.80;;
47882;SDS011;37739;50.350;7.578;2023-02-23T08:47:16;24.47;;;21.87;;
47882;SDS011;37739;50.350;7.578;2023-02-23T08:49:50;27.77;;;24.70;;
47882;SDS011;37739;50.350;7.578;2023-02-23T08:52:18;24.60;;;22.10;;
47882;SDS011;37739;50.350;7.578;2023-02-23T08:54:44;28.03;;;25.20;;
47882;SDS011;37739;50.350;7.578;2023-02-23T08:57:09;25.27;;;22.63;;
47882;SDS011;37739;50.350;7.578;2023-02-23T08:59:37;26.30;;;23.70;;
47882;SDS011;37739;50.350;7.578;2023-02-23T09:02:03;24.00;;;21.30;;
47882;SDS011;37739;50.350;7.578;2023-02-23T09:04:35;26.37;;;23.67;;
47882;SDS011;37739;50.350;7.578;2023-02-23T09:07:01;28.20;;;25.40;;
47882;SDS011;37739;50.350;7.578;2023-02-23T09:09:28;26.37;;;23.70;;
47882;SDS011;37739;50.350;7.578;2023-02-23T09:11:53;28.40;;;25.40;;
47882;SDS011;37739;50.350;7.578;2023-02-23T09:14:18;24.43;;;21.93;;
47882;SDS011;37739;50.350;7.578;2023-02-23T09:16:46;32.07;;;28.93;;
47882;SDS011;37739;50.350;7.578;2023-02-23T09:19:11;32.73;;;29.50;;
47882;SDS011;37739;50.350;7.578;2023-02-23T09:21:38;33.30;;;29.97;;
47882;SDS011;37739;50.350;7.578;2023-02-23T09:24:03;30.00;;;27.10;;
47882;SDS011;37739;50.350;7.578;2023-02-23T09:26:28;30.50;;;27.50;;
47882;SDS011;37739;50.350;7.578;2023-02-23T09:28:56;29.83;;;26.73;;
47882;SDS011;37739;50.350;7.578;2023-02-23T09:31:23;27.17;;;24.40;;
47882;SDS011;37739;50.350;7.578;2023-02-23T09:33:49;23.33;;;20.83;;
47882;SDS011;37739;50.350;7.578;2023-02-23T09:36:18;30.80;;;26.67;;
47882;SDS011;37739;50.350;7.578;2023-02-23T09:38:47;29.60;;;25.93;;
47882;SDS011;37739;50.350;7.578;2023-02-23T09:49:09;23.20;;;19.77;;
47882;SDS011;37739;50.350;7.578;2023-02-23T09:51:39;25.50;;;22.90;;
47882;SDS011;37739;50.350;7.578;2023-02-23T09:54:10;23.53;;;21.20;;
47882;SDS011;37739;50.350;7.578;2023-02-23T09:56:47;22.30;;;20.13;;
47882;SDS011;37739;50.350;7.578;2023-02-23T09:59:15;26.77;;;24.07;;
47882;SDS011;37739;50.350;7.578;2023-02-23T10:05:15;24.40;;;21.97;;
47882;SDS011;37739;50.350;7.578;2023-02-23T10:07:49;25.23;;;22.63;;
47882;SDS011;37739;50.350;7.578;2023-02-23T10:13:17;28.33;;;25.23;;
47882;SDS011;37739;50.350;7.578;2023-02-23T10:16:00;23.03;;;20.77;;
47882;SDS011;37739;50.350;7.578;2023-02-23T10:18:42;22.67;;;20.47;;
47882;SDS011;37739;50.350;7.578;2023-02-23T10:26:25;25.77;;;23.17;;
47882;SDS011;37739;50.350;7.578;2023-02-23T10:28:56;26.40;;;23.70;;
47882;SDS011;37739;50.350;7.578;2023-02-23T10:31:27;25.23;;;22.80;;
47882;SDS011;37739;50.350;7.578;2023-02-23T10:34:01;25.07;;;22.57;;
47882;SDS011;37739;50.350;7.578;2023-02-23T10:36:32;23.73;;;21.43;;
47882;SDS011;37739;50.350;7.578;2023-02-23T10:39:06;26.40;;;23.57;;
47882;SDS011;37739;50.350;7.578;2023-02-23T10:41:33;27.43;;;24.70;;
47882;SDS011;37739;50.350;7.578;2023-02-23T10:44:02;27.50;;;24.70;;
47882;SDS011;37739;50.350;7.578;2023-02-23T10:46:36;19.20;;;17.40;;
47882;SDS011;37739;50.350;7.578;2023-02-23T10:49:05;24.40;;;22.10;;
47882;SDS011;37739;50.350;7.578;2023-02-23T10:51:36;26.50;;;23.90;;
47882;SDS011;37739;50.350;7.578;2023-02-23T10:54:32;20.37;;;18.37;;
47882;SDS011;37739;50.350;7.578;2023-02-23T10:57:10;21.53;;;19.43;;
47882;SDS011;37739;50.350;7.578;2023-02-23T10:59:55;24.23;;;21.80;;
47882;SDS011;37739;50.350;7.578;2023-02-23T11:02:34;21.23;;;19.10;;
47882;SDS011;37739;50.350;7.578;2023-02-23T11:05:00;22.50;;;20.30;;
47882;SDS011;37739;50.350;7.578;2023-02-23T11:07:28;22.77;;;20.57;;
47882;SDS011;37739;50.350;7.578;2023-02-23T11:09:57;20.60;;;18.57;;
47882;SDS011;37739;50.350;7.578;2023-02-23T11:12:42;21.33;;;19.37;;
47882;SDS011;37739;50.350;7.578;2023-02-23T11:15:20;20.33;;;18.23;;
47882;SDS011;37739;50.350;7.578;2023-02-23T11:17:53;19.97;;;18.07;;
47882;SDS011;37739;50.350;7.578;2023-02-23T11:22:54;14.83;;;13.33;;
47882;SDS011;37739;50.350;7.578;2023-02-23T11:25:28;17.53;;;15.87;;
47882;SDS011;37739;50.350;7.578;2023-02-23T11:27:56;21.57;;;19.37;;
47882;SDS011;37739;50.350;7.578;2023-02-23T11:30:23;19.80;;;17.70;;
47882;SDS011;37739;50.350;7.578;2023-02-23T11:32:58;21.23;;;19.13;;
47882;SDS011;37739;50.350;7.578;2023-02-23T11:35:33;18.33;;;16.53;;
47882;SDS011;37739;50.350;7.578;2023-02-23T11:37:59;16.97;;;15.00;;
47882;SDS011;37739;50.350;7.578;2023-02-23T11:40:39;17.00;;;15.40;;
47882;SDS011;37739;50.350;7.578;2023-02-23T11:43:08;18.60;;;16.80;;
47882;SDS011;37739;50.350;7.578;2023-02-23T11:48:18;19.07;;;17.27;;
47882;SDS011;37739;50.350;7.578;2023-02-23T11:50:47;18.20;;;16.40;;
47882;SDS011;37739;50.350;7.578;2023-02-23T11:53:14;18.93;;;17.03;;
47882;SDS011;37739;50.350;7.578;2023-02-23T11:55:45;21.10;;;18.93;;
47882;SDS011;37739;50.350;7.578;2023-02-23T11:58:24;18.83;;;16.93;;
47882;SDS011;37739;50.350;7.578;2023-02-23T12:01:01;16.70;;;15.10;;
47882;SDS011;37739;50.350;7.578;2023-02-23T12:03:38;19.47;;;17.60;;
47882;SDS011;37739;50.350;7.578;2023-02-23T12:06:11;20.30;;;18.40;;
47882;SDS011;37739;50.350;7.578;2023-02-23T12:08:54;17.30;;;15.60;;
47882;SDS011;37739;50.350;7.578;2023-02-23T12:11:30;18.23;;;16.40;;
47882;SDS011;37739;50.350;7.578;2023-02-23T12:14:02;15.17;;;13.57;;
47882;SDS011;37739;50.350;7.578;2023-02-23T12:16:32;18.27;;;16.47;;
47882;SDS011;37739;50.350;7.578;2023-02-23T12:24:37;18.63;;;16.67;;
47882;SDS011;37739;50.350;7.578;2023-02-23T12:27:11;18.73;;;16.77;;
47882;SDS011;37739;50.350;7.578;2023-02-23T12:32:09;18.67;;;16.60;;
47882;SDS011;37739;50.350;7.578;2023-02-23T12:34:43;18.07;;;16.37;;
47882;SDS011;37739;50.350;7.578;2023-02-23T12:39:51;16.87;;;15.17;;
47882;SDS011;37739;50.350;7.578;2023-02-23T12:42:29;19.70;;;17.73;;
47882;SDS011;37739;50.350;7.578;2023-02-23T12:45:04;14.90;;;13.40;;
47882;SDS011;37739;50.350;7.578;2023-02-23T12:47:44;16.97;;;15.27;;
47882;SDS011;37739;50.350;7.578;2023-02-23T12:52:56;18.60;;;16.80;;
47882;SDS011;37739;50.350;7.578;2023-02-23T12:55:53;18.17;;;16.23;;
47882;SDS011;37739;50.350;7.578;2023-02-23T13:12:24;17.03;;;15.37;;
47882;SDS011;37739;50.350;7.578;2023-02-23T13:23:27;13.30;;;12.00;;
47882;SDS011;37739;50.350;7.578;2023-02-23T13:26:03;15.13;;;13.63;;
47882;SDS011;37739;50.350;7.578;2023-02-23T13:31:26;15.27;;;13.70;;
47882;SDS011;37739;50.350;7.578;2023-02-23T13:33:55;15.93;;;14.50;;
47882;SDS011;37739;50.350;7.578;2023-02-23T13:36:30;17.50;;;15.73;;
47882;SDS011;37739;50.350;7.578;2023-02-23T13:53:39;17.93;;;16.13;;
47882;SDS011;37739;50.350;7.578;2023-02-23T13:56:15;16.93;;;15.30;;
47882;SDS011;37739;50.350;7.578;2023-02-23T13:59:02;15.97;;;14.27;;
47882;SDS011;37739;50.350;7.578;2023-02-23T14:01:37;17.93;;;16.23;;
47882;SDS011;37739;50.350;7.578;2023-02-23T14:04:14;19.00;;;16.23;;
47882;SDS011;37739;50.350;7.578;2023-02-23T14:07:11;18.60;;;16.70;;
47882;SDS011;37739;50.350;7.578;2023-02-23T14:12:24;17.17;;;14.87;;
47882;SDS011;37739;50.350;7.578;2023-02-23T14:17:53;18.00;;;16.10;;
47882;SDS011;37739;50.350;7.578;2023-02-23T14:23:04;13.73;;;12.33;;
47882;SDS011;37739;50.350;7.578;2023-02-23T14:31:01;13.17;;;11.77;;
47882;SDS011;37739;50.350;7.578;2023-02-23T14:33:47;13.43;;;11.53;;
47882;SDS011;37739;50.350;7.578;2023-02-23T14:36:34;12.07;;;10.77;;
47882;SDS011;37739;50.350;7.578;2023-02-23T14:39:05;11.63;;;10.23;;
47882;SDS011;37739;50.350;7.578;2023-02-23T14:41:45;13.50;;;12.10;;
47882;SDS011;37739;50.350;7.578;2023-02-23T14:49:55;15.53;;;13.93;;
47882;SDS011;37739;50.350;7.578;2023-02-23T14:52:34;14.40;;;12.90;;
47882;SDS011;37739;50.350;7.578;2023-02-23T14:55:15;16.47;;;14.73;;
47882;SDS011;37739;50.350;7.578;2023-02-23T14:57:47;15.57;;;13.90;;
47882;SDS011;37739;50.350;7.578;2023-02-23T15:02:39;16.53;;;13.80;;
47882;SDS011;37739;50.350;7.578;2023-02-23T15:05:34;18.17;;;14.40;;
47882;SDS011;37739;50.350;7.578;2023-02-23T15:08:06;15.47;;;13.70;;
47882;SDS011;37739;50.350;7.578;2023-02-23T15:10:37;18.37;;;15.97;;
47882;SDS011;37739;50.350;7.578;2023-02-23T15:15:51;12.03;;;10.80;;
47882;SDS011;37739;50.350;7.578;2023-02-23T15:18:26;16.40;;;14.60;;
47882;SDS011;37739;50.350;7.578;2023-02-23T15:21:08;14.73;;;12.73;;
47882;SDS011;37739;50.350;7.578;2023-02-23T15:23:40;16.37;;;13.70;;
47882;SDS011;37739;50.350;7.578;2023-02-23T15:26:18;16.37;;;14.00;;
47882;SDS011;37739;50.350;7.578;2023-02-23T15:28:50;14.97;;;12.80;;
47882;SDS011;37739;50.350;7.578;2023-02-23T15:31:20;13.97;;;12.57;;
47882;SDS011;37739;50.350;7.578;2023-02-23T15:33:46;13.03;;;11.70;;
47882;SDS011;37739;50.350;7.578;2023-02-23T15:36:19;14.33;;;12.77;;
47882;SDS011;37739;50.350;7.578;2023-02-23T15:38:54;15.70;;;13.07;;
47882;SDS011;37739;50.350;7.578;2023-02-23T15:41:44;15.00;;;13.27;;
47882;SDS011;37739;50.350;7.578;2023-02-23T15:46:50;15.40;;;13.80;;
47882;SDS011;37739;50.350;7.578;2023-02-23T15:49:19;16.90;;;15.20;;
47882;SDS011;37739;50.350;7.578;2023-02-23T15:51:49;16.47;;;14.77;;
47882;SDS011;37739;50.350;7.578;2023-02-23T15:54:26;18.30;;;16.07;;
47882;SDS011;37739;50.350;7.578;2023-02-23T15:56:55;15.17;;;13.43;;
47882;SDS011;37739;50.350;7.578;2023-02-23T15:59:26;17.43;;;15.63;;
47882;SDS011;37739;50.350;7.578;2023-02-23T16:01:56;16.50;;;14.87;;
47882;SDS011;37739;50.350;7.578;2023-02-23T16:04:26;15.17;;;13.73;;
47882;SDS011;37739;50.350;7.578;2023-02-23T16:09:55;16.07;;;13.67;;
47882;SDS011;37739;50.350;7.578;2023-02-23T16:12:38;13.70;;;12.30;;
47882;SDS011;37739;50.350;7.578;2023-02-23T16:15:23;11.93;;;10.83;;
47882;SDS011;37739;50.350;7.578;2023-02-23T16:17:52;13.50;;;12.00;;
47882;SDS011;37739;50.350;7.578;2023-02-23T16:20:33;13.97;;;12.57;;
47882;SDS011;37739;50.350;7.578;2023-02-23T16:23:03;12.33;;;10.67;;
47882;SDS011;37739;50.350;7.578;2023-02-23T16:25:30;12.90;;;11.60;;
47882;SDS011;37739;50.350;7.578;2023-02-23T16:28:03;14.93;;;13.37;;
47882;SDS011;37739;50.350;7.578;2023-02-23T16:35:48;13.07;;;11.80;;
47882;SDS011;37739;50.350;7.578;2023-02-23T16:38:22;14.20;;;12.00;;
47882;SDS011;37739;50.350;7.578;2023-02-23T16:40:52;17.83;;;14.27;;
47882;SDS011;37739;50.350;7.578;2023-02-23T16:43:18;15.57;;;13.20;;
47882;SDS011;37739;50.350;7.578;2023-02-23T16:45:43;21.00;;;15.90;;
47882;SDS011;37739;50.350;7.578;2023-02-23T16:48:15;18.20;;;15.90;;
47882;SDS011;37739;50.350;7.578;2023-02-23T16:50:44;26.47;;;18.93;;
47882;SDS011;37739;50.350;7.578;2023-02-23T16:53:10;23.93;;;18.83;;
47882;SDS011;37739;50.350;7.578;2023-02-23T16:55:38;25.73;;;19.70;;
47882;SDS011;37739;50.350;7.578;2023-02-23T16:58:10;26.30;;;19.70;;
47882;SDS011;37739;50.350;7.578;2023-02-23T17:00:44;29.70;;;20.60;;
47882;SDS011;37739;50.350;7.578;2023-02-23T17:03:16;27.40;;;21.90;;
47882;SDS011;37739;50.350;7.578;2023-02-23T17:05:45;25.23;;;18.07;;
47882;SDS011;37739;50.350;7.578;2023-02-23T17:08:13;30.70;;;20.20;;
47882;SDS011;37739;50.350;7.578;2023-02-23T17:10:39;26.70;;;19.37;;
47882;SDS011;37739;50.350;7.578;2023-02-23T17:13:06;26.90;;;18.93;;
47882;SDS011;37739;50.350;7.578;2023-02-23T17:15:38;29.03;;;21.27;;
47882;SDS011;37739;50.350;7.578;2023-02-23T17:18:14;30.20;;;21.07;;
47882;SDS011;37739;50.350;7.578;2023-02-23T17:20:39;27.03;;;18.83;;
47882;SDS011;37739;50.350;7.578;2023-02-23T17:23:05;29.67;;;21.30;;